Terminal Aerodrome Forecast
Issued by NWS

Home | Current Version | Previous Version | Graphics & Text | Print | Product List | Glossary On
Versions: 1 2 3 4 5 6 7 8 9 10 11 12 13 14 15 16 17 18 19 20 21 22 23 24 25 26 27 28 29 30 31 32
000
FTUS43 KLOT 221100
TAFORD
TAF
KORD 221120Z 2212/2318 35005KT P6SM BKN030
     FM221400 12006KT P6SM SCT035
     FM221800 09007KT P6SM SKC
     FM230300 15004KT P6SM FEW250
     FM231400 19008KT P6SM BKN250=

USA.gov is the U.S. government's official web portal to all federal, state and local government web resources and services.